sensor_id;sensor_type;location;lat;lon;timestamp;P1;durP1;ratioP1;P2;durP2;ratioP2
53961;SDS011;39868;53.398;6.564;2023-02-28T00:01:06;4.40;;;1.40;;
53961;SDS011;39868;53.398;6.564;2023-02-28T00:03:34;2.20;;;1.30;;
53961;SDS011;39868;53.398;6.564;2023-02-28T00:06:05;1.30;;;1.20;;
53961;SDS011;39868;53.398;6.564;2023-02-28T00:08:33;1.53;;;1.43;;
53961;SDS011;39868;53.398;6.564;2023-02-28T00:11:03;1.20;;;1.20;;
53961;SDS011;39868;53.398;6.564;2023-02-28T00:13:36;1.30;;;1.20;;
53961;SDS011;39868;53.398;6.564;2023-02-28T00:16:06;2.30;;;1.27;;
53961;SDS011;39868;53.398;6.564;2023-02-28T00:18:36;1.50;;;1.40;;
53961;SDS011;39868;53.398;6.564;2023-02-28T00:21:04;2.20;;;1.10;;
53961;SDS011;39868;53.398;6.564;2023-02-28T00:23:32;1.53;;;1.20;;
53961;SDS011;39868;53.398;6.564;2023-02-28T00:26:00;1.63;;;1.17;;
53961;SDS011;39868;53.398;6.564;2023-02-28T00:28:28;3.70;;;1.40;;
53961;SDS011;39868;53.398;6.564;2023-02-28T00:30:58;1.70;;;1.33;;
53961;SDS011;39868;53.398;6.564;2023-02-28T00:33:28;1.30;;;1.20;;
53961;SDS011;39868;53.398;6.564;2023-02-28T00:36:03;1.20;;;1.10;;
53961;SDS011;39868;53.398;6.564;2023-02-28T00:38:35;1.20;;;1.20;;
53961;SDS011;39868;53.398;6.564;2023-02-28T00:41:03;1.40;;;1.30;;
53961;SDS011;39868;53.398;6.564;2023-02-28T00:43:32;1.40;;;1.30;;
53961;SDS011;39868;53.398;6.564;2023-02-28T00:46:01;1.50;;;1.40;;
53961;SDS011;39868;53.398;6.564;2023-02-28T00:48:29;2.17;;;1.40;;
53961;SDS011;39868;53.398;6.564;2023-02-28T00:50:57;1.43;;;1.33;;
53961;SDS011;39868;53.398;6.564;2023-02-28T00:53:24;1.30;;;1.10;;
53961;SDS011;39868;53.398;6.564;2023-02-28T00:55:52;1.13;;;1.13;;
53961;SDS011;39868;53.398;6.564;2023-02-28T00:58:19;2.53;;;1.43;;
53961;SDS011;39868;53.398;6.564;2023-02-28T01:00:47;2.17;;;1.40;;
53961;SDS011;39868;53.398;6.564;2023-02-28T01:03:16;1.87;;;1.60;;
53961;SDS011;39868;53.398;6.564;2023-02-28T01:05:45;1.10;;;1.10;;
53961;SDS011;39868;53.398;6.564;2023-02-28T01:08:13;1.00;;;1.00;;
53961;SDS011;39868;53.398;6.564;2023-02-28T01:10:41;1.40;;;1.40;;
53961;SDS011;39868;53.398;6.564;2023-02-28T01:13:08;4.00;;;1.50;;
53961;SDS011;39868;53.398;6.564;2023-02-28T01:15:36;1.30;;;1.20;;
53961;SDS011;39868;53.398;6.564;2023-02-28T01:18:04;1.00;;;1.00;;
53961;SDS011;39868;53.398;6.564;2023-02-28T01:20:32;1.53;;;1.43;;
53961;SDS011;39868;53.398;6.564;2023-02-28T01:23:00;1.33;;;1.23;;
53961;SDS011;39868;53.398;6.564;2023-02-28T01:25:27;1.30;;;1.20;;
53961;SDS011;39868;53.398;6.564;2023-02-28T01:27:55;3.20;;;1.27;;
53961;SDS011;39868;53.398;6.564;2023-02-28T01:30:22;1.43;;;1.33;;
53961;SDS011;39868;53.398;6.564;2023-02-28T01:32:50;3.53;;;1.13;;
53961;SDS011;39868;53.398;6.564;2023-02-28T01:35:19;1.20;;;1.10;;
53961;SDS011;39868;53.398;6.564;2023-02-28T01:37:47;1.30;;;1.07;;
53961;SDS011;39868;53.398;6.564;2023-02-28T01:40:14;1.43;;;1.23;;
53961;SDS011;39868;53.398;6.564;2023-02-28T01:42:42;1.30;;;1.20;;
53961;SDS011;39868;53.398;6.564;2023-02-28T01:45:25;1.20;;;1.20;;
53961;SDS011;39868;53.398;6.564;2023-02-28T01:47:55;1.23;;;1.13;;
53961;SDS011;39868;53.398;6.564;2023-02-28T01:50:28;2.35;;;1.13;;
53961;SDS011;39868;53.398;6.564;2023-02-28T01:53:00;1.30;;;1.20;;
53961;SDS011;39868;53.398;6.564;2023-02-28T01:55:31;2.03;;;1.20;;
53961;SDS011;39868;53.398;6.564;2023-02-28T01:58:00;1.30;;;1.20;;
53961;SDS011;39868;53.398;6.564;2023-02-28T02:00:30;2.50;;;1.50;;
53961;SDS011;39868;53.398;6.564;2023-02-28T02:02:59;1.13;;;1.10;;
53961;SDS011;39868;53.398;6.564;2023-02-28T02:05:34;2.83;;;1.30;;
53961;SDS011;39868;53.398;6.564;2023-02-28T02:08:09;2.20;;;1.27;;
53961;SDS011;39868;53.398;6.564;2023-02-28T02:10:44;2.37;;;1.17;;
53961;SDS011;39868;53.398;6.564;2023-02-28T02:18:53;1.40;;;1.30;;
53961;SDS011;39868;53.398;6.564;2023-02-28T02:24:24;3.33;;;1.27;;
53961;SDS011;39868;53.398;6.564;2023-02-28T02:33:23;1.27;;;1.20;;
53961;SDS011;39868;53.398;6.564;2023-02-28T02:36:07;1.47;;;1.20;;
53961;SDS011;39868;53.398;6.564;2023-02-28T02:44:01;3.78;;;1.40;;
53961;SDS011;39868;53.398;6.564;2023-02-28T02:46:34;1.20;;;1.20;;
53961;SDS011;39868;53.398;6.564;2023-02-28T02:49:08;1.40;;;1.30;;
53961;SDS011;39868;53.398;6.564;2023-02-28T02:51:39;1.37;;;1.30;;
53961;SDS011;39868;53.398;6.564;2023-02-28T02:54:10;2.33;;;1.20;;
53961;SDS011;39868;53.398;6.564;2023-02-28T02:56:49;1.37;;;1.10;;
53961;SDS011;39868;53.398;6.564;2023-02-28T02:59:19;5.73;;;2.10;;
53961;SDS011;39868;53.398;6.564;2023-02-28T03:01:52;11.23;;;4.07;;
53961;SDS011;39868;53.398;6.564;2023-02-28T03:04:26;10.67;;;3.77;;
53961;SDS011;39868;53.398;6.564;2023-02-28T03:06:58;13.93;;;4.05;;
53961;SDS011;39868;53.398;6.564;2023-02-28T03:09:26;8.53;;;3.80;;
53961;SDS011;39868;53.398;6.564;2023-02-28T03:11:54;7.37;;;2.93;;
53961;SDS011;39868;53.398;6.564;2023-02-28T03:17:49;8.38;;;3.13;;
53961;SDS011;39868;53.398;6.564;2023-02-28T03:31:20;3.87;;;2.47;;
53961;SDS011;39868;53.398;6.564;2023-02-28T03:34:14;3.90;;;2.10;;
53961;SDS011;39868;53.398;6.564;2023-02-28T03:36:45;4.20;;;1.87;;
53961;SDS011;39868;53.398;6.564;2023-02-28T03:39:18;2.77;;;1.70;;
53961;SDS011;39868;53.398;6.564;2023-02-28T03:42:10;3.40;;;1.27;;
53961;SDS011;39868;53.398;6.564;2023-02-28T03:44:49;2.10;;;1.30;;
53961;SDS011;39868;53.398;6.564;2023-02-28T03:47:29;1.13;;;1.13;;
53961;SDS011;39868;53.398;6.564;2023-02-28T03:50:07;1.40;;;1.20;;
53961;SDS011;39868;53.398;6.564;2023-02-28T03:52:39;1.40;;;1.30;;
53961;SDS011;39868;53.398;6.564;2023-02-28T03:55:13;3.27;;;1.30;;
53961;SDS011;39868;53.398;6.564;2023-02-28T04:00:34;2.20;;;1.20;;
53961;SDS011;39868;53.398;6.564;2023-02-28T04:03:07;2.93;;;1.23;;
53961;SDS011;39868;53.398;6.564;2023-02-28T04:05:44;1.93;;;1.10;;
53961;SDS011;39868;53.398;6.564;2023-02-28T04:08:21;1.00;;;1.00;;
53961;SDS011;39868;53.398;6.564;2023-02-28T04:11:35;1.30;;;1.10;;
53961;SDS011;39868;53.398;6.564;2023-02-28T04:13:58;4.37;;;1.43;;
53961;SDS011;39868;53.398;6.564;2023-02-28T04:16:26;1.50;;;1.40;;
53961;SDS011;39868;53.398;6.564;2023-02-28T04:19:04;1.33;;;1.23;;
53961;SDS011;39868;53.398;6.564;2023-02-28T04:21:33;3.00;;;1.60;;
53961;SDS011;39868;53.398;6.564;2023-02-28T04:24:02;4.27;;;1.30;;
53961;SDS011;39868;53.398;6.564;2023-02-28T04:26:34;1.40;;;1.30;;
53961;SDS011;39868;53.398;6.564;2023-02-28T04:29:03;3.30;;;1.20;;
53961;SDS011;39868;53.398;6.564;2023-02-28T04:31:32;1.13;;;0.90;;
53961;SDS011;39868;53.398;6.564;2023-02-28T04:34:00;1.30;;;1.20;;
53961;SDS011;39868;53.398;6.564;2023-02-28T04:36:28;2.00;;;1.20;;
53961;SDS011;39868;53.398;6.564;2023-02-28T04:38:56;1.10;;;1.10;;
53961;SDS011;39868;53.398;6.564;2023-02-28T04:41:23;2.97;;;1.53;;
53961;SDS011;39868;53.398;6.564;2023-02-28T04:43:51;2.93;;;1.53;;
53961;SDS011;39868;53.398;6.564;2023-02-28T04:46:22;2.07;;;1.30;;
53961;SDS011;39868;53.398;6.564;2023-02-28T04:48:49;3.97;;;2.20;;
53961;SDS011;39868;53.398;6.564;2023-02-28T04:51:17;5.33;;;2.87;;
53961;SDS011;39868;53.398;6.564;2023-02-28T04:53:46;4.97;;;2.90;;
53961;SDS011;39868;53.398;6.564;2023-02-28T04:56:15;5.57;;;3.03;;
53961;SDS011;39868;53.398;6.564;2023-02-28T04:58:44;6.80;;;3.20;;
53961;SDS011;39868;53.398;6.564;2023-02-28T05:01:22;4.87;;;3.47;;
53961;SDS011;39868;53.398;6.564;2023-02-28T05:03:52;3.80;;;3.00;;
53961;SDS011;39868;53.398;6.564;2023-02-28T05:06:22;6.03;;;3.73;;
53961;SDS011;39868;53.398;6.564;2023-02-28T05:08:51;5.00;;;3.27;;
53961;SDS011;39868;53.398;6.564;2023-02-28T05:11:26;6.13;;;3.70;;
53961;SDS011;39868;53.398;6.564;2023-02-28T05:14:02;6.22;;;3.33;;
53961;SDS011;39868;53.398;6.564;2023-02-28T05:16:35;5.43;;;3.43;;
53961;SDS011;39868;53.398;6.564;2023-02-28T05:19:03;6.77;;;3.47;;
53961;SDS011;39868;53.398;6.564;2023-02-28T05:21:31;4.50;;;3.30;;
53961;SDS011;39868;53.398;6.564;2023-02-28T05:24:01;5.17;;;3.43;;
53961;SDS011;39868;53.398;6.564;2023-02-28T05:26:34;3.83;;;3.00;;
53961;SDS011;39868;53.398;6.564;2023-02-28T05:29:03;5.90;;;3.40;;
53961;SDS011;39868;53.398;6.564;2023-02-28T05:31:31;5.13;;;3.20;;
53961;SDS011;39868;53.398;6.564;2023-02-28T05:34:00;5.80;;;3.60;;
53961;SDS011;39868;53.398;6.564;2023-02-28T05:36:27;4.60;;;3.00;;
53961;SDS011;39868;53.398;6.564;2023-02-28T05:38:55;4.50;;;3.43;;
53961;SDS011;39868;53.398;6.564;2023-02-28T05:41:22;5.47;;;3.27;;
53961;SDS011;39868;53.398;6.564;2023-02-28T05:43:50;4.07;;;2.73;;
53961;SDS011;39868;53.398;6.564;2023-02-28T05:46:18;4.10;;;3.07;;
53961;SDS011;39868;53.398;6.564;2023-02-28T05:48:46;3.50;;;2.93;;
53961;SDS011;39868;53.398;6.564;2023-02-28T05:51:14;3.43;;;3.07;;
53961;SDS011;39868;53.398;6.564;2023-02-28T05:53:42;5.57;;;3.43;;
53961;SDS011;39868;53.398;6.564;2023-02-28T05:56:09;3.63;;;2.87;;
53961;SDS011;39868;53.398;6.564;2023-02-28T05:58:36;4.70;;;3.37;;
53961;SDS011;39868;53.398;6.564;2023-02-28T06:03:49;4.40;;;3.60;;
53961;SDS011;39868;53.398;6.564;2023-02-28T06:06:17;3.60;;;2.97;;
53961;SDS011;39868;53.398;6.564;2023-02-28T06:08:44;4.87;;;3.33;;
53961;SDS011;39868;53.398;6.564;2023-02-28T06:11:12;4.03;;;3.00;;
53961;SDS011;39868;53.398;6.564;2023-02-28T06:13:40;5.10;;;3.27;;
53961;SDS011;39868;53.398;6.564;2023-02-28T06:16:08;3.40;;;3.10;;
53961;SDS011;39868;53.398;6.564;2023-02-28T06:18:37;3.30;;;2.80;;
53961;SDS011;39868;53.398;6.564;2023-02-28T06:21:05;2.60;;;2.40;;
53961;SDS011;39868;53.398;6.564;2023-02-28T06:23:32;3.10;;;2.80;;
53961;SDS011;39868;53.398;6.564;2023-02-28T06:26:00;2.77;;;2.43;;
53961;SDS011;39868;53.398;6.564;2023-02-28T06:28:27;3.30;;;2.67;;
53961;SDS011;39868;53.398;6.564;2023-02-28T06:30:54;4.97;;;2.53;;
53961;SDS011;39868;53.398;6.564;2023-02-28T06:33:22;3.37;;;2.67;;
53961;SDS011;39868;53.398;6.564;2023-02-28T06:35:50;4.07;;;2.97;;
53961;SDS011;39868;53.398;6.564;2023-02-28T06:38:18;3.10;;;2.60;;
53961;SDS011;39868;53.398;6.564;2023-02-28T06:40:52;3.40;;;2.70;;
53961;SDS011;39868;53.398;6.564;2023-02-28T06:43:21;2.90;;;2.60;;
53961;SDS011;39868;53.398;6.564;2023-02-28T06:45:48;3.37;;;2.50;;
53961;SDS011;39868;53.398;6.564;2023-02-28T06:48:16;2.63;;;2.43;;
53961;SDS011;39868;53.398;6.564;2023-02-28T06:50:44;3.93;;;2.63;;
53961;SDS011;39868;53.398;6.564;2023-02-28T06:53:11;3.07;;;2.77;;
53961;SDS011;39868;53.398;6.564;2023-02-28T06:55:39;3.57;;;3.03;;
53961;SDS011;39868;53.398;6.564;2023-02-28T06:58:06;4.87;;;3.00;;
53961;SDS011;39868;53.398;6.564;2023-02-28T07:00:50;4.20;;;3.00;;
53961;SDS011;39868;53.398;6.564;2023-02-28T07:03:18;6.40;;;3.50;;
53961;SDS011;39868;53.398;6.564;2023-02-28T07:05:46;5.03;;;3.10;;
53961;SDS011;39868;53.398;6.564;2023-02-28T07:08:13;5.33;;;3.37;;
53961;SDS011;39868;53.398;6.564;2023-02-28T07:10:41;4.57;;;2.93;;
53961;SDS011;39868;53.398;6.564;2023-02-28T07:13:08;5.93;;;3.70;;
53961;SDS011;39868;53.398;6.564;2023-02-28T07:15:37;3.33;;;3.00;;
53961;SDS011;39868;53.398;6.564;2023-02-28T07:18:08;6.13;;;3.78;;
53961;SDS011;39868;53.398;6.564;2023-02-28T07:20:35;4.17;;;3.10;;
53961;SDS011;39868;53.398;6.564;2023-02-28T07:23:03;4.17;;;3.40;;
53961;SDS011;39868;53.398;6.564;2023-02-28T07:25:30;6.23;;;3.33;;
53961;SDS011;39868;53.398;6.564;2023-02-28T07:27:58;5.40;;;3.77;;
53961;SDS011;39868;53.398;6.564;2023-02-28T07:30:25;4.90;;;3.73;;
53961;SDS011;39868;53.398;6.564;2023-02-28T07:32:53;5.33;;;3.90;;
53961;SDS011;39868;53.398;6.564;2023-02-28T07:35:22;6.43;;;4.27;;
53961;SDS011;39868;53.398;6.564;2023-02-28T07:37:50;7.20;;;4.00;;
53961;SDS011;39868;53.398;6.564;2023-02-28T07:40:18;5.33;;;4.33;;
53961;SDS011;39868;53.398;6.564;2023-02-28T07:42:45;4.77;;;4.10;;
53961;SDS011;39868;53.398;6.564;2023-02-28T07:45:16;7.73;;;4.57;;
53961;SDS011;39868;53.398;6.564;2023-02-28T07:47:44;6.00;;;3.90;;
53961;SDS011;39868;53.398;6.564;2023-02-28T07:50:12;5.93;;;3.93;;
53961;SDS011;39868;53.398;6.564;2023-02-28T07:52:41;4.77;;;3.63;;
53961;SDS011;39868;53.398;6.564;2023-02-28T07:55:09;5.20;;;4.03;;
53961;SDS011;39868;53.398;6.564;2023-02-28T07:57:37;5.73;;;4.10;;
53961;SDS011;39868;53.398;6.564;2023-02-28T08:00:05;11.43;;;4.63;;
53961;SDS011;39868;53.398;6.564;2023-02-28T08:02:41;22.83;;;9.87;;
53961;SDS011;39868;53.398;6.564;2023-02-28T08:05:09;7.50;;;5.13;;
53961;SDS011;39868;53.398;6.564;2023-02-28T08:07:37;9.30;;;5.20;;
53961;SDS011;39868;53.398;6.564;2023-02-28T08:10:04;14.57;;;7.17;;
53961;SDS011;39868;53.398;6.564;2023-02-28T08:12:32;13.60;;;7.47;;
53961;SDS011;39868;53.398;6.564;2023-02-28T08:14:59;9.57;;;6.27;;
53961;SDS011;39868;53.398;6.564;2023-02-28T08:17:27;7.43;;;4.93;;
53961;SDS011;39868;53.398;6.564;2023-02-28T08:19:55;11.07;;;6.13;;
53961;SDS011;39868;53.398;6.564;2023-02-28T08:22:22;8.43;;;5.13;;
53961;SDS011;39868;53.398;6.564;2023-02-28T08:24:49;5.20;;;4.17;;
53961;SDS011;39868;53.398;6.564;2023-02-28T08:27:17;6.17;;;3.87;;
53961;SDS011;39868;53.398;6.564;2023-02-28T08:29:44;8.97;;;5.20;;
53961;SDS011;39868;53.398;6.564;2023-02-28T08:32:12;9.27;;;4.93;;
53961;SDS011;39868;53.398;6.564;2023-02-28T08:37:22;10.47;;;5.83;;
53961;SDS011;39868;53.398;6.564;2023-02-28T08:39:50;11.03;;;5.73;;
53961;SDS011;39868;53.398;6.564;2023-02-28T08:42:21;7.10;;;5.50;;
53961;SDS011;39868;53.398;6.564;2023-02-28T08:44:49;8.70;;;5.27;;
53961;SDS011;39868;53.398;6.564;2023-02-28T08:47:17;8.53;;;4.40;;
53961;SDS011;39868;53.398;6.564;2023-02-28T08:49:44;6.07;;;3.60;;
53961;SDS011;39868;53.398;6.564;2023-02-28T08:52:11;6.30;;;3.87;;
53961;SDS011;39868;53.398;6.564;2023-02-28T08:54:39;6.67;;;3.90;;
53961;SDS011;39868;53.398;6.564;2023-02-28T08:57:06;7.03;;;3.93;;
53961;SDS011;39868;53.398;6.564;2023-02-28T08:59:34;4.43;;;3.13;;
53961;SDS011;39868;53.398;6.564;2023-02-28T09:02:01;6.57;;;3.67;;
53961;SDS011;39868;53.398;6.564;2023-02-28T09:04:29;4.73;;;3.70;;
53961;SDS011;39868;53.398;6.564;2023-02-28T09:06:57;5.97;;;3.43;;
53961;SDS011;39868;53.398;6.564;2023-02-28T09:09:25;7.43;;;3.90;;
53961;SDS011;39868;53.398;6.564;2023-02-28T09:11:52;7.43;;;3.83;;
53961;SDS011;39868;53.398;6.564;2023-02-28T09:14:23;5.57;;;3.57;;
53961;SDS011;39868;53.398;6.564;2023-02-28T09:16:51;7.13;;;3.67;;
53961;SDS011;39868;53.398;6.564;2023-02-28T09:19:18;8.93;;;3.57;;
53961;SDS011;39868;53.398;6.564;2023-02-28T09:21:46;8.37;;;4.20;;
53961;SDS011;39868;53.398;6.564;2023-02-28T09:24:13;6.93;;;3.93;;
53961;SDS011;39868;53.398;6.564;2023-02-28T09:26:41;15.07;;;5.43;;
53961;SDS011;39868;53.398;6.564;2023-02-28T09:29:29;12.30;;;4.50;;
53961;SDS011;39868;53.398;6.564;2023-02-28T09:31:57;8.73;;;4.33;;
53961;SDS011;39868;53.398;6.564;2023-02-28T09:34:26;11.50;;;5.50;;
53961;SDS011;39868;53.398;6.564;2023-02-28T09:36:57;11.27;;;5.28;;
53961;SDS011;39868;53.398;6.564;2023-02-28T09:39:25;9.33;;;4.50;;
53961;SDS011;39868;53.398;6.564;2023-02-28T09:41:53;9.53;;;4.90;;
53961;SDS011;39868;53.398;6.564;2023-02-28T09:44:25;5.87;;;3.87;;
53961;SDS011;39868;53.398;6.564;2023-02-28T09:47:05;5.97;;;3.10;;
53961;SDS011;39868;53.398;6.564;2023-02-28T09:49:55;8.07;;;4.27;;
53961;SDS011;39868;53.398;6.564;2023-02-28T09:52:28;9.07;;;4.47;;
53961;SDS011;39868;53.398;6.564;2023-02-28T09:57:47;7.70;;;3.63;;
53961;SDS011;39868;53.398;6.564;2023-02-28T10:00:18;6.43;;;4.20;;
53961;SDS011;39868;53.398;6.564;2023-02-28T10:02:49;5.20;;;3.53;;
53961;SDS011;39868;53.398;6.564;2023-02-28T10:05:39;7.77;;;3.27;;
53961;SDS011;39868;53.398;6.564;2023-02-28T10:08:16;6.78;;;3.38;;
53961;SDS011;39868;53.398;6.564;2023-02-28T10:10:51;7.03;;;3.77;;
53961;SDS011;39868;53.398;6.564;2023-02-28T10:16:04;7.23;;;3.40;;
53961;SDS011;39868;53.398;6.564;2023-02-28T10:18:40;7.37;;;3.53;;
53961;SDS011;39868;53.398;6.564;2023-02-28T10:21:21;6.70;;;3.67;;
53961;SDS011;39868;53.398;6.564;2023-02-28T10:23:51;5.45;;;3.17;;
53961;SDS011;39868;53.398;6.564;2023-02-28T10:26:31;4.80;;;3.30;;
53961;SDS011;39868;53.398;6.564;2023-02-28T10:28:59;6.07;;;3.50;;
53961;SDS011;39868;53.398;6.564;2023-02-28T10:31:27;4.90;;;2.72;;
53961;SDS011;39868;53.398;6.564;2023-02-28T10:33:55;5.88;;;3.22;;
53961;SDS011;39868;53.398;6.564;2023-02-28T10:36:22;6.57;;;3.55;;
53961;SDS011;39868;53.398;6.564;2023-02-28T10:38:50;6.28;;;3.35;;
53961;SDS011;39868;53.398;6.564;2023-02-28T10:41:30;4.72;;;3.05;;
53961;SDS011;39868;53.398;6.564;2023-02-28T10:44:21;6.00;;;3.30;;
53961;SDS011;39868;53.398;6.564;2023-02-28T10:46:50;6.40;;;2.70;;
53961;SDS011;39868;53.398;6.564;2023-02-28T10:49:22;9.00;;;2.95;;
53961;SDS011;39868;53.398;6.564;2023-02-28T10:51:54;5.75;;;3.00;;
53961;SDS011;39868;53.398;6.564;2023-02-28T10:54:31;5.55;;;3.10;;
53961;SDS011;39868;53.398;6.564;2023-02-28T10:57:18;5.53;;;3.05;;
53961;SDS011;39868;53.398;6.564;2023-02-28T11:00:15;6.20;;;3.05;;
53961;SDS011;39868;53.398;6.564;2023-02-28T11:02:48;4.75;;;2.75;;
53961;SDS011;39868;53.398;6.564;2023-02-28T11:10:55;5.70;;;2.88;;
53961;SDS011;39868;53.398;6.564;2023-02-28T11:13:26;5.18;;;2.65;;
53961;SDS011;39868;53.398;6.564;2023-02-28T11:16:03;6.15;;;3.00;;
53961;SDS011;39868;53.398;6.564;2023-02-28T11:21:05;6.18;;;2.63;;
53961;SDS011;39868;53.398;6.564;2023-02-28T11:23:35;4.93;;;2.67;;
53961;SDS011;39868;53.398;6.564;2023-02-28T11:26:03;4.53;;;2.40;;
53961;SDS011;39868;53.398;6.564;2023-02-28T11:28:32;6.28;;;2.15;;
53961;SDS011;39868;53.398;6.564;2023-02-28T11:31:03;5.13;;;2.50;;
53961;SDS011;39868;53.398;6.564;2023-02-28T11:33:51;4.78;;;2.35;;
53961;SDS011;39868;53.398;6.564;2023-02-28T11:36:23;5.43;;;2.30;;
53961;SDS011;39868;53.398;6.564;2023-02-28T11:38:55;4.78;;;2.33;;
53961;SDS011;39868;53.398;6.564;2023-02-28T11:52:40;5.32;;;3.00;;
53961;SDS011;39868;53.398;6.564;2023-02-28T11:55:27;5.50;;;2.60;;
53961;SDS011;39868;53.398;6.564;2023-02-28T12:03:11;3.65;;;2.13;;
53961;SDS011;39868;53.398;6.564;2023-02-28T12:06:01;4.93;;;2.97;;
53961;SDS011;39868;53.398;6.564;2023-02-28T12:09:02;4.63;;;2.92;;
53961;SDS011;39868;53.398;6.564;2023-02-28T12:11:51;5.35;;;3.17;;
53961;SDS011;39868;53.398;6.564;2023-02-28T12:20:14;4.60;;;2.88;;
53961;SDS011;39868;53.398;6.564;2023-02-28T12:28:34;4.93;;;2.50;;
53961;SDS011;39868;53.398;6.564;2023-02-28T12:31:17;4.10;;;2.50;;
53961;SDS011;39868;53.398;6.564;2023-02-28T12:33:51;4.70;;;2.90;;
53961;SDS011;39868;53.398;6.564;2023-02-28T12:36:22;4.78;;;3.15;;
53961;SDS011;39868;53.398;6.564;2023-02-28T12:39:02;5.82;;;3.20;;
53961;SDS011;39868;53.398;6.564;2023-02-28T12:41:37;4.63;;;2.88;;
53961;SDS011;39868;53.398;6.564;2023-02-28T12:44:13;4.82;;;3.00;;
53961;SDS011;39868;53.398;6.564;2023-02-28T12:46:55;5.63;;;2.75;;
53961;SDS011;39868;53.398;6.564;2023-02-28T12:49:32;7.22;;;2.85;;
53961;SDS011;39868;53.398;6.564;2023-02-28T12:52:10;4.85;;;3.13;;
53961;SDS011;39868;53.398;6.564;2023-02-28T12:57:18;5.07;;;2.67;;
53961;SDS011;39868;53.398;6.564;2023-02-28T13:00:03;6.53;;;3.13;;
53961;SDS011;39868;53.398;6.564;2023-02-28T13:11:39;4.90;;;2.78;;
53961;SDS011;39868;53.398;6.564;2023-02-28T13:16:55;7.45;;;3.33;;
53961;SDS011;39868;53.398;6.564;2023-02-28T13:19:44;7.25;;;4.00;;
53961;SDS011;39868;53.398;6.564;2023-02-28T13:27:49;6.50;;;3.20;;
53961;SDS011;39868;53.398;6.564;2023-02-28T13:36:06;9.13;;;3.72;;
53961;SDS011;39868;53.398;6.564;2023-02-28T13:38:43;9.25;;;4.25;;
53961;SDS011;39868;53.398;6.564;2023-02-28T13:43:59;9.23;;;4.45;;
53961;SDS011;39868;53.398;6.564;2023-02-28T14:05:44;9.32;;;4.22;;
53961;SDS011;39868;53.398;6.564;2023-02-28T14:08:14;8.13;;;4.15;;
53961;SDS011;39868;53.398;6.564;2023-02-28T14:10:50;7.43;;;4.28;;
53961;SDS011;39868;53.398;6.564;2023-02-28T14:13:40;7.00;;;3.80;;
53961;SDS011;39868;53.398;6.564;2023-02-28T14:16:21;6.88;;;4.20;;
53961;SDS011;39868;53.398;6.564;2023-02-28T14:21:40;9.98;;;4.22;;
53961;SDS011;39868;53.398;6.564;2023-02-28T14:38:05;6.28;;;3.15;;
53961;SDS011;39868;53.398;6.564;2023-02-28T14:40:39;7.07;;;3.80;;
53961;SDS011;39868;53.398;6.564;2023-02-28T14:43:18;7.20;;;3.95;;
53961;SDS011;39868;53.398;6.564;2023-02-28T14:45:49;6.43;;;3.92;;
53961;SDS011;39868;53.398;6.564;2023-02-28T14:48:18;7.53;;;4.28;;
53961;SDS011;39868;53.398;6.564;2023-02-28T14:50:54;6.53;;;3.58;;
53961;SDS011;39868;53.398;6.564;2023-02-28T14:53:30;5.85;;;3.08;;
53961;SDS011;39868;53.398;6.564;2023-02-28T14:56:03;6.93;;;3.33;;
53961;SDS011;39868;53.398;6.564;2023-02-28T14:58:33;6.95;;;3.80;;
53961;SDS011;39868;53.398;6.564;2023-02-28T15:01:01;5.75;;;3.45;;
53961;SDS011;39868;53.398;6.564;2023-02-28T15:03:31;5.75;;;3.65;;
53961;SDS011;39868;53.398;6.564;2023-02-28T15:06:05;8.57;;;4.25;;
53961;SDS011;39868;53.398;6.564;2023-02-28T15:08:40;5.55;;;3.17;;
53961;SDS011;39868;53.398;6.564;2023-02-28T15:11:08;7.63;;;3.97;;
53961;SDS011;39868;53.398;6.564;2023-02-28T15:13:48;8.75;;;3.70;;
53961;SDS011;39868;53.398;6.564;2023-02-28T15:21:41;6.30;;;3.80;;
53961;SDS011;39868;53.398;6.564;2023-02-28T15:26:42;6.45;;;3.58;;
53961;SDS011;39868;53.398;6.564;2023-02-28T15:29:19;6.82;;;3.97;;
53961;SDS011;39868;53.398;6.564;2023-02-28T15:31:49;8.38;;;4.38;;
53961;SDS011;39868;53.398;6.564;2023-02-28T15:34:40;6.05;;;3.97;;
53961;SDS011;39868;53.398;6.564;2023-02-28T15:45:35;6.50;;;3.92;;
53961;SDS011;39868;53.398;6.564;2023-02-28T15:48:06;8.52;;;4.53;;
53961;SDS011;39868;53.398;6.564;2023-02-28T15:51:08;8.15;;;4.47;;
53961;SDS011;39868;53.398;6.564;2023-02-28T15:53:59;7.22;;;4.72;;
53961;SDS011;39868;53.398;6.564;2023-02-28T15:56:39;6.55;;;4.20;;
53961;SDS011;39868;53.398;6.564;2023-02-28T15:59:16;6.22;;;3.72;;
53961;SDS011;39868;53.398;6.564;2023-02-28T16:02:01;5.05;;;3.63;;
53961;SDS011;39868;53.398;6.564;2023-02-28T16:04:35;8.25;;;4.32;;
53961;SDS011;39868;53.398;6.564;2023-02-28T16:07:04;6.22;;;3.58;;
53961;SDS011;39868;53.398;6.564;2023-02-28T16:09:32;9.27;;;3.65;;
53961;SDS011;39868;53.398;6.564;2023-02-28T16:12:04;8.23;;;3.50;;
53961;SDS011;39868;53.398;6.564;2023-02-28T16:14:32;7.32;;;3.58;;
53961;SDS011;39868;53.398;6.564;2023-02-28T16:17:32;5.30;;;3.17;;
53961;SDS011;39868;53.398;6.564;2023-02-28T16:20:12;6.55;;;3.45;;
53961;SDS011;39868;53.398;6.564;2023-02-28T16:22:41;5.22;;;3.53;;
53961;SDS011;39868;53.398;6.564;2023-02-28T16:25:13;7.82;;;3.60;;
53961;SDS011;39868;53.398;6.564;2023-02-28T16:27:47;6.35;;;3.70;;
53961;SDS011;39868;53.398;6.564;2023-02-28T16:30:24;6.45;;;3.90;;
53961;SDS011;39868;53.398;6.564;2023-02-28T16:32:54;6.72;;;3.72;;
53961;SDS011;39868;53.398;6.564;2023-02-28T16:35:22;5.97;;;3.78;;
53961;SDS011;39868;53.398;6.564;2023-02-28T16:37:50;5.90;;;3.67;;
53961;SDS011;39868;53.398;6.564;2023-02-28T16:40:19;5.93;;;3.83;;
53961;SDS011;39868;53.398;6.564;2023-02-28T16:42:50;8.00;;;4.35;;
53961;SDS011;39868;53.398;6.564;2023-02-28T16:45:21;5.63;;;3.47;;
53961;SDS011;39868;53.398;6.564;2023-02-28T16:47:50;7.70;;;3.70;;
53961;SDS011;39868;53.398;6.564;2023-02-28T16:50:19;4.57;;;3.10;;
53961;SDS011;39868;53.398;6.564;2023-02-28T16:52:50;5.45;;;3.38;;
53961;SDS011;39868;53.398;6.564;2023-02-28T16:55:24;5.72;;;3.30;;
53961;SDS011;39868;53.398;6.564;2023-02-28T16:57:53;5.23;;;4.00;;
53961;SDS011;39868;53.398;6.564;2023-02-28T17:00:23;7.37;;;4.00;;
53961;SDS011;39868;53.398;6.564;2023-02-28T17:02:51;4.70;;;3.40;;
53961;SDS011;39868;53.398;6.564;2023-02-28T17:05:19;6.03;;;3.70;;
53961;SDS011;39868;53.398;6.564;2023-02-28T17:07:47;6.13;;;3.53;;
53961;SDS011;39868;53.398;6.564;2023-02-28T17:10:19;5.73;;;3.93;;
53961;SDS011;39868;53.398;6.564;2023-02-28T17:12:49;6.50;;;3.33;;
53961;SDS011;39868;53.398;6.564;2023-02-28T17:15:17;6.13;;;3.60;;
53961;SDS011;39868;53.398;6.564;2023-02-28T17:17:46;4.40;;;3.27;;
53961;SDS011;39868;53.398;6.564;2023-02-28T17:20:16;6.70;;;3.80;;
53961;SDS011;39868;53.398;6.564;2023-02-28T17:22:56;6.17;;;3.43;;
53961;SDS011;39868;53.398;6.564;2023-02-28T17:25:23;6.80;;;3.97;;
53961;SDS011;39868;53.398;6.564;2023-02-28T17:27:51;5.17;;;3.40;;
53961;SDS011;39868;53.398;6.564;2023-02-28T17:30:22;7.53;;;3.33;;
53961;SDS011;39868;53.398;6.564;2023-02-28T17:32:54;6.37;;;3.40;;
53961;SDS011;39868;53.398;6.564;2023-02-28T17:35:22;6.57;;;3.47;;
53961;SDS011;39868;53.398;6.564;2023-02-28T17:37:50;5.17;;;3.23;;
53961;SDS011;39868;53.398;6.564;2023-02-28T17:40:19;5.97;;;3.37;;
53961;SDS011;39868;53.398;6.564;2023-02-28T17:42:47;5.30;;;3.73;;
53961;SDS011;39868;53.398;6.564;2023-02-28T17:45:15;5.87;;;3.43;;
53961;SDS011;39868;53.398;6.564;2023-02-28T17:47:43;6.00;;;3.90;;
53961;SDS011;39868;53.398;6.564;2023-02-28T17:50:15;4.57;;;3.43;;
53961;SDS011;39868;53.398;6.564;2023-02-28T17:52:44;5.97;;;3.83;;
53961;SDS011;39868;53.398;6.564;2023-02-28T17:55:11;5.30;;;3.33;;
53961;SDS011;39868;53.398;6.564;2023-02-28T17:57:39;5.10;;;3.47;;
53961;SDS011;39868;53.398;6.564;2023-02-28T18:00:10;5.33;;;3.50;;